Long Beach, CA (90801)

1:25 AM PDT on August 21, 2014 (GMT -0700)
Aquarium of the Pacific - Water Shed BLDG | Change Station
CLOSE
Current Station
Personal Weather Station
Location: Long Beach, CA
Elevation: 33 ft
Nearby Weather Stations

Elev 33 ft 33.76 °N, 118.20 °W | Updated 6 minutes ago

Clear
Clear
66.5 °F
Feels Like 66.5 °F
N
0.0
Wind Variable Wind from NE
Gusts 0.0 mph

Today
High -- | Low -- °F
--% Chance of Precip.
Yesterday
High -- | Low -- °F
Precip. -- in
6:18 AM 7:32 PM
Waning Crescent, 16% visible
Pressure 29.92 in
Visibility 10.0 miles
Clouds Clear
Dew Point 62 °F
Humidity 84%
Rainfall 0.06 in
Snow Depth Not available.
UV 0 out of 12
Pollen 5.60 out of 12
Ozone Good
Flu Activity Not available.
METAR KLGB 210753Z AUTO 29003KT 10SM CLR 20/16 A2992 RMK AO2 SLP132 T02000161 402670200 TSNO

More Conditions Fewer Conditions

Pressure 29.92 in
Visibility 10.0 miles
Clouds Clear
Dew Point 62 °F
Humidity 84%
Rainfall 0.06 in
Snow Depth Not available.
UV 0 out of 12
Pollen 5.60 out of 12
Ozone Good
Flu Activity Not available.
METAR KLGB 210753Z AUTO 29003KT 10SM CLR 20/16 A2992 RMK AO2 SLP132 T02000161 402670200 TSNO

More Conditions Fewer Conditions

10-Day Weather Forecast

Almanac

Astronomy

Aug. 21, 2014 Rise Set
Actual Time 6:18 AM PDT 7:32 PM PDT
Civil Twilight 5:52 AM PDT 7:58 PM PDT
Nautical Twilight 5:21 AM PDT 8:28 PM PDT
Astronomical Twilight 4:49 AM PDT 9:00 PM PDT
Moon 2:57 AM PDT 5:00 PM PDT
Length of Visible Light 14h 05m
Length of Day
13h 13m
Tomorrow will be 1m 54s shorter.
Waning Crescent, 16% of the Moon is Illuminated
Today
Waning Crescent
Aug 25
New
Sep 2
First Quarter
Sep 8
Full
Sep 15
Last Quarter

Today's Extremes

State Highs State Lows

Community

WunderPhotos

Upload Photos

1,745,867 photos uploaded!

Nearby

Air Quality

  Air Quality AQ Index Pollutant
Yesterday Good
OZONE
Current Good
OZONE
Thursday Good
PM10
Thursday Good
OZONE
Thursday Good
CO
Thursday Good
NO2

Snow Depth

Station Depth Elevation
Leavitt Lake 1 in 9400 ft
Leavitt Meadows 1 in 7200 ft
Summit Meadow 1 in 9122 ft
Blue Lakes 0 in 8000 ft
Monitor Pass 0 in 8350 ft

Earthquake Activity

City Distance Mag. Time & Date
Malibu Beach, California 33 miles 3.4 10:03 AM PDT
2014-08-15
Yucca Valley, California 106 miles 3.8 8:57 PM PDT
2014-08-14
Minimum magnitude displayed is 2.5.

Coastal Water Temperatures

Place Temperature
Santa Monica Pier 71.1 °F
Los Angeles, CA 66.9 °F
La Jolla, CA 72.0 °F

Nearby Weather Stations